Time;durP1;ratioP1;P1;durP2;ratioP2;P2;SDS_P1;SDS_P2;PMS_P1;PMS_P2;Temp;Humidity;BMP_temperature;BMP_pressure;BME280_temperature;BME280_humidity;BME280_pressure;Samples;Min_cycle;Max_cycle;Signal;HPM_P1;HPM_P2
2023/06/11 00:02:21;;;;;;;9.88;9.18;;;;;;;;;;5057931;28;20021;-20
2023/06/11 00:04:49;;;;;;;9.05;8.55;;;;;;;;;;5057497;28;20049;-20
2023/06/11 00:07:16;;;;;;;8.65;8.15;;;;;;;;;;5057645;28;20456;-18
2023/06/11 00:09:42;;;;;;;10.30;9.60;;;;;;;;;;5057642;28;20063;-20
2023/06/11 00:12:08;;;;;;;10.15;9.55;;;;;;;;;;5057522;28;20351;-19
2023/06/11 00:14:35;;;;;;;7.93;7.43;;;;;;;;;;5057819;28;20043;-18
2023/06/11 00:17:01;;;;;;;9.43;8.82;;;;;;;;;;5057506;28;20041;-19
2023/06/11 00:19:29;;;;;;;9.95;9.30;;;;;;;;;;5057377;28;20107;-20
2023/06/11 00:21:58;;;;;;;8.25;7.75;;;;;;;;;;5057569;28;20033;-23
2023/06/11 00:24:25;;;;;;;10.18;9.48;;;;;;;;;;5057646;28;20029;-25
2023/06/11 00:26:51;;;;;;;8.88;8.35;;;;;;;;;;5057594;28;20013;-17
2023/06/11 00:29:17;;;;;;;8.73;8.13;;;;;;;;;;5057536;28;20088;-18
2023/06/11 00:31:43;;;;;;;9.75;9.13;;;;;;;;;;5057462;28;20025;-18
2023/06/11 00:34:09;;;;;;;9.77;9.07;;;;;;;;;;5057331;28;20029;-19
2023/06/11 00:36:36;;;;;;;9.25;8.65;;;;;;;;;;5057111;28;20033;-20
2023/06/11 00:39:02;;;;;;;9.32;8.73;;;;;;;;;;5056989;28;20444;-21
2023/06/11 00:41:30;;;;;;;10.52;9.88;;;;;;;;;;5057042;28;20056;-20
2023/06/11 00:43:57;;;;;;;9.20;8.60;;;;;;;;;;5057175;28;20017;-23
2023/06/11 00:46:23;;;;;;;8.18;7.68;;;;;;;;;;5057220;28;20025;-21
2023/06/11 00:48:50;;;;;;;9.20;8.60;;;;;;;;;;5056100;28;20021;-20
2023/06/11 00:51:18;;;;;;;9.60;8.90;;;;;;;;;;5057089;28;20095;-20
2023/06/11 00:53:44;;;;;;;8.88;8.23;;;;;;;;;;5039172;28;20104;-22
2023/06/11 00:56:11;;;;;;;8.40;7.90;;;;;;;;;;5056701;28;20037;-22
2023/06/11 00:58:37;;;;;;;9.75;9.15;;;;;;;;;;5056585;28;20104;-21
2023/06/11 01:01:05;;;;;;;7.82;7.32;;;;;;;;;;5056669;28;20025;-21
2023/06/11 01:03:33;;;;;;;9.57;8.95;;;;;;;;;;5056433;28;20124;-20
2023/06/11 01:06:05;;;;;;;9.63;9.02;;;;;;;;;;5056515;28;20055;-23
2023/06/11 01:08:33;;;;;;;8.75;8.15;;;;;;;;;;5039393;28;20087;-21
2023/06/11 01:11:01;;;;;;;9.32;8.63;;;;;;;;;;5057051;28;20036;-18
2023/06/11 01:13:27;;;;;;;10.20;9.55;;;;;;;;;;5056638;28;20109;-19
2023/06/11 01:16:02;;;;;;;9.27;8.63;;;;;;;;;;5056372;28;20021;-21
2023/06/11 01:18:30;;;;;;;8.88;8.27;;;;;;;;;;5056875;28;20025;-22
2023/06/11 01:20:56;;;;;;;9.55;8.85;;;;;;;;;;5056312;28;20360;-18
2023/06/11 01:23:31;;;;;;;9.60;8.90;;;;;;;;;;5056302;28;20056;-18
2023/06/11 01:26:03;;;;;;;9.88;9.27;;;;;;;;;;5056240;28;20033;-22
2023/06/11 01:28:31;;;;;;;9.95;9.32;;;;;;;;;;5056407;28;20025;-20
2023/06/11 01:30:59;;;;;;;8.75;8.15;;;;;;;;;;5056651;28;20021;-20
2023/06/11 01:33:26;;;;;;;9.13;8.55;;;;;;;;;;5056008;28;20163;-18
2023/06/11 01:35:57;;;;;;;10.00;9.30;;;;;;;;;;5055973;28;20040;-19
2023/06/11 01:38:25;;;;;;;10.00;9.40;;;;;;;;;;5055875;28;20041;-18
2023/06/11 01:40:51;;;;;;;9.32;8.73;;;;;;;;;;5055844;28;20068;-24
2023/06/11 01:43:17;;;;;;;8.43;7.93;;;;;;;;;;5055805;28;20458;-21
2023/06/11 01:45:43;;;;;;;9.38;8.77;;;;;;;;;;5055818;28;20033;-19
2023/06/11 01:48:10;;;;;;;8.40;7.90;;;;;;;;;;5056295;28;20031;-22
2023/06/11 01:50:36;;;;;;;9.65;9.05;;;;;;;;;;5055970;28;20035;-20
2023/06/11 01:53:03;;;;;;;9.32;8.73;;;;;;;;;;5055545;28;20060;-19
2023/06/11 01:55:29;;;;;;;9.20;8.60;;;;;;;;;;5055895;28;20048;-20
2023/06/11 01:57:55;;;;;;;8.68;8.13;;;;;;;;;;5055457;28;20033;-17
2023/06/11 02:00:21;;;;;;;10.23;9.60;;;;;;;;;;5054402;28;20456;-20
2023/06/11 02:02:48;;;;;;;9.65;9.05;;;;;;;;;;5055419;28;20068;-21
2023/06/11 02:05:15;;;;;;;9.02;8.43;;;;;;;;;;5055748;28;20028;-20
2023/06/11 02:07:41;;;;;;;10.02;9.40;;;;;;;;;;5055299;28;20017;-22
2023/06/11 02:10:07;;;;;;;10.10;9.40;;;;;;;;;;5055367;28;20044;-21
2023/06/11 02:12:33;;;;;;;9.85;9.23;;;;;;;;;;5055725;28;20044;-19
2023/06/11 02:14:59;;;;;;;9.93;9.23;;;;;;;;;;5055528;28;20036;-17
2023/06/11 02:17:26;;;;;;;10.00;9.40;;;;;;;;;;5055093;28;20100;-17
2023/06/11 02:19:52;;;;;;;10.52;9.82;;;;;;;;;;5055203;28;20021;-19
2023/06/11 02:22:18;;;;;;;9.93;9.32;;;;;;;;;;5055015;28;20040;-21
2023/06/11 02:24:44;;;;;;;9.85;9.23;;;;;;;;;;5055605;28;20091;-20
2023/06/11 02:27:10;;;;;;;9.80;9.10;;;;;;;;;;5055037;28;20101;-21
2023/06/11 02:29:36;;;;;;;9.68;9.07;;;;;;;;;;5055201;28;20056;-20
2023/06/11 02:32:04;;;;;;;9.98;9.27;;;;;;;;;;5054884;28;20052;-18
2023/06/11 02:34:30;;;;;;;8.85;8.35;;;;;;;;;;5055452;28;20090;-23
2023/06/11 02:36:56;;;;;;;9.82;9.07;;;;;;;;;;5054918;28;20025;-18
2023/06/11 02:39:22;;;;;;;9.60;9.00;;;;;;;;;;5054777;28;20037;-18
2023/06/11 02:41:48;;;;;;;9.40;8.80;;;;;;;;;;5055048;28;20024;-22
2023/06/11 02:44:14;;;;;;;8.82;8.23;;;;;;;;;;5054672;28;20017;-19
2023/06/11 02:46:40;;;;;;;9.40;8.80;;;;;;;;;;5054973;28;20028;-21
2023/06/11 02:49:07;;;;;;;9.77;9.13;;;;;;;;;;5054727;28;20025;-19
2023/06/11 02:51:33;;;;;;;9.90;9.20;;;;;;;;;;5054979;28;20456;-20
2023/06/11 02:53:59;;;;;;;9.43;8.68;;;;;;;;;;5054565;28;20041;-19
2023/06/11 02:56:26;;;;;;;9.88;9.18;;;;;;;;;;5054586;28;20044;-20
2023/06/11 02:58:52;;;;;;;10.00;9.30;;;;;;;;;;5054430;28;20448;-22
2023/06/11 03:01:18;;;;;;;8.35;7.85;;;;;;;;;;5054841;28;20363;-20
2023/06/11 03:03:44;;;;;;;9.45;8.85;;;;;;;;;;5036944;28;20541;-20
2023/06/11 03:06:11;;;;;;;9.18;8.55;;;;;;;;;;5037445;28;20033;-22
2023/06/11 03:08:37;;;;;;;9.32;8.73;;;;;;;;;;5054733;28;20021;-19
2023/06/11 03:11:03;;;;;;;8.90;8.30;;;;;;;;;;5054916;28;20087;-20
2023/06/11 03:13:29;;;;;;;9.75;9.05;;;;;;;;;;5054071;28;20048;-19
2023/06/11 03:15:55;;;;;;;10.05;9.35;;;;;;;;;;5054750;28;20108;-21
2023/06/11 03:18:21;;;;;;;9.55;8.95;;;;;;;;;;5054588;28;20071;-21
2023/06/11 03:20:47;;;;;;;9.30;8.73;;;;;;;;;;5054600;28;20017;-19
2023/06/11 03:23:15;;;;;;;10.13;9.43;;;;;;;;;;5054567;28;20025;-20
2023/06/11 03:25:41;;;;;;;10.00;9.07;;;;;;;;;;5054288;28;20032;-20
2023/06/11 03:28:07;;;;;;;9.02;8.43;;;;;;;;;;5054600;28;20037;-18
2023/06/11 03:30:33;;;;;;;9.15;8.60;;;;;;;;;;5054261;28;20104;-18
2023/06/11 03:32:59;;;;;;;8.57;8.07;;;;;;;;;;5054181;28;20550;-19
2023/06/11 03:35:25;;;;;;;8.90;8.30;;;;;;;;;;5036728;28;20044;-20
2023/06/11 03:37:51;;;;;;;9.63;8.93;;;;;;;;;;5054366;28;20471;-20
2023/06/11 03:40:18;;;;;;;9.85;9.15;;;;;;;;;;5036670;28;20025;-21
2023/06/11 03:42:44;;;;;;;9.05;8.45;;;;;;;;;;5054117;28;20025;-16
2023/06/11 03:45:10;;;;;;;9.52;8.93;;;;;;;;;;5054149;28;20072;-20
2023/06/11 03:47:36;;;;;;;8.70;8.13;;;;;;;;;;5054363;28;20021;-20
2023/06/11 03:50:04;;;;;;;8.85;8.35;;;;;;;;;;5054114;28;20029;-22
2023/06/11 03:52:30;;;;;;;9.15;8.55;;;;;;;;;;5054264;28;20017;-18
2023/06/11 03:54:56;;;;;;;9.25;8.65;;;;;;;;;;5054026;28;20436;-22
2023/06/11 03:57:23;;;;;;;8.85;8.25;;;;;;;;;;5054286;28;20344;-20
2023/06/11 03:59:49;;;;;;;8.88;8.25;;;;;;;;;;5054172;28;20063;-20
2023/06/11 04:02:15;;;;;;;9.02;8.43;;;;;;;;;;5054211;28;20032;-19
2023/06/11 04:04:41;;;;;;;9.27;8.68;;;;;;;;;;5053799;28;20045;-18
2023/06/11 04:07:07;;;;;;;9.55;8.85;;;;;;;;;;5054467;28;20386;-20
2023/06/11 04:09:33;;;;;;;10.07;9.38;;;;;;;;;;5053951;28;20424;-20
2023/06/11 04:11:59;;;;;;;8.68;8.18;;;;;;;;;;5053833;28;20032;-22
2023/06/11 04:14:25;;;;;;;8.68;8.18;;;;;;;;;;5054213;28;20064;-21
2023/06/11 04:16:51;;;;;;;8.88;8.27;;;;;;;;;;5053823;28;20036;-22
2023/06/11 04:19:18;;;;;;;8.40;7.80;;;;;;;;;;5054003;28;20025;-22
2023/06/11 04:21:44;;;;;;;8.85;8.35;;;;;;;;;;5053751;28;20036;-18
2023/06/11 04:24:10;;;;;;;8.35;7.85;;;;;;;;;;5055227;28;20021;-18
2023/06/11 04:26:37;;;;;;;8.63;8.05;;;;;;;;;;5057864;28;20025;-19
2023/06/11 04:29:03;;;;;;;8.68;8.18;;;;;;;;;;5057531;28;20037;-19
2023/06/11 04:31:29;;;;;;;8.57;7.97;;;;;;;;;;5039674;28;20483;-21
2023/06/11 04:34:02;;;;;;;9.18;8.57;;;;;;;;;;5057156;28;20040;-19
2023/06/11 04:36:29;;;;;;;8.38;7.88;;;;;;;;;;5057437;28;20033;-21
2023/06/11 04:38:56;;;;;;;8.60;8.07;;;;;;;;;;5057287;28;20375;-19
2023/06/11 04:41:26;;;;;;;8.77;8.02;;;;;;;;;;5057801;28;20090;-20
2023/06/11 04:43:52;;;;;;;9.35;8.75;;;;;;;;;;5056908;28;20040;-19
2023/06/11 04:46:18;;;;;;;7.95;7.45;;;;;;;;;;5057003;28;20040;-18
2023/06/11 04:48:48;;;;;;;9.50;8.90;;;;;;;;;;5057456;28;20029;-21
2023/06/11 04:51:16;;;;;;;8.80;8.20;;;;;;;;;;5057641;28;20436;-23
2023/06/11 04:53:42;;;;;;;8.25;7.75;;;;;;;;;;5056736;28;20049;-20
2023/06/11 04:56:09;;;;;;;8.60;8.00;;;;;;;;;;5056856;28;20025;-22
2023/06/11 04:58:35;;;;;;;8.60;8.10;;;;;;;;;;5056706;28;20333;-20
2023/06/11 05:01:04;;;;;;;8.48;7.97;;;;;;;;;;5056715;28;20021;-20
2023/06/11 05:03:32;;;;;;;8.68;8.07;;;;;;;;;;5056548;28;20375;-17
2023/06/11 05:06:01;;;;;;;8.35;7.80;;;;;;;;;;5039045;28;20036;-18
2023/06/11 05:08:28;;;;;;;9.13;8.52;;;;;;;;;;5056492;28;20459;-20
2023/06/11 05:10:54;;;;;;;8.20;7.70;;;;;;;;;;5056480;28;20029;-20
2023/06/11 05:13:25;;;;;;;8.48;7.97;;;;;;;;;;5056485;28;20028;-29
2023/06/11 05:15:59;;;;;;;7.80;7.30;;;;;;;;;;5056452;28;20082;-21
2023/06/11 05:18:26;;;;;;;8.43;7.93;;;;;;;;;;5056646;28;20029;-19
2023/06/11 05:20:53;;;;;;;8.60;8.00;;;;;;;;;;5056269;28;20586;-23
2023/06/11 05:23:27;;;;;;;7.82;7.43;;;;;;;;;;5056342;28;20052;-23
2023/06/11 05:25:53;;;;;;;7.43;7.03;;;;;;;;;;5056236;28;20566;-19
2023/06/11 05:28:20;;;;;;;9.15;8.57;;;;;;;;;;5056581;28;20391;-23
2023/06/11 05:30:46;;;;;;;8.82;8.32;;;;;;;;;;5056420;28;20037;-24
2023/06/11 05:33:20;;;;;;;8.18;7.68;;;;;;;;;;5056201;28;20076;-23
2023/06/11 05:35:52;;;;;;;8.50;8.00;;;;;;;;;;5055813;28;20032;-19
2023/06/11 05:38:19;;;;;;;8.65;8.15;;;;;;;;;;5055923;28;20021;-20
2023/06/11 05:40:45;;;;;;;9.20;8.65;;;;;;;;;;5055885;28;20135;-20
2023/06/11 05:43:11;;;;;;;8.20;7.70;;;;;;;;;;5056111;28;20052;-16
2023/06/11 05:45:37;;;;;;;8.35;7.82;;;;;;;;;;5055852;28;20036;-21
2023/06/11 05:48:05;;;;;;;8.35;7.82;;;;;;;;;;5056119;28;20083;-19
2023/06/11 05:50:31;;;;;;;8.07;7.57;;;;;;;;;;5055767;28;20326;-19
2023/06/11 05:52:57;;;;;;;8.32;7.82;;;;;;;;;;5055955;28;20024;-21
2023/06/11 05:55:23;;;;;;;7.75;7.25;;;;;;;;;;5038088;28;20087;-19
2023/06/11 05:57:49;;;;;;;8.45;7.85;;;;;;;;;;5055517;28;20101;-19
2023/06/11 06:00:16;;;;;;;8.48;7.88;;;;;;;;;;5055851;28;20060;-19
2023/06/11 06:02:42;;;;;;;8.00;7.50;;;;;;;;;;5037698;28;20032;-19
2023/06/11 06:05:08;;;;;;;8.32;7.72;;;;;;;;;;5055465;28;20112;-19
2023/06/11 06:07:35;;;;;;;9.10;8.50;;;;;;;;;;5038664;28;20025;-19
2023/06/11 06:10:02;;;;;;;7.55;7.15;;;;;;;;;;5055420;28;20380;-20
2023/06/11 06:12:28;;;;;;;8.27;7.78;;;;;;;;;;5055501;28;20354;-20
2023/06/11 06:14:54;;;;;;;8.10;7.60;;;;;;;;;;5055584;28;20032;-21
2023/06/11 06:17:20;;;;;;;7.95;7.45;;;;;;;;;;5055265;28;20356;-21
2023/06/11 06:19:46;;;;;;;8.13;7.63;;;;;;;;;;5055408;28;20474;-22
2023/06/11 06:22:15;;;;;;;6.75;6.35;;;;;;;;;;5055390;28;20345;-18
2023/06/11 06:24:41;;;;;;;8.18;7.68;;;;;;;;;;5055378;28;20017;-23
2023/06/11 06:27:07;;;;;;;7.85;7.35;;;;;;;;;;5055626;28;20029;-19
2023/06/11 06:29:33;;;;;;;6.28;5.90;;;;;;;;;;5055030;28;20456;-19
2023/06/11 06:32:00;;;;;;;7.97;7.47;;;;;;;;;;5054926;28;20100;-21
2023/06/11 06:34:26;;;;;;;6.97;6.57;;;;;;;;;;5055226;28;20044;-22
2023/06/11 06:36:52;;;;;;;7.40;7.00;;;;;;;;;;5055146;28;20108;-21
2023/06/11 06:39:18;;;;;;;7.55;7.05;;;;;;;;;;5055080;28;20055;-18
2023/06/11 06:41:44;;;;;;;7.30;6.82;;;;;;;;;;5054825;28;20028;-21
2023/06/11 06:44:10;;;;;;;6.82;6.43;;;;;;;;;;5055008;28;20440;-19
2023/06/11 06:46:36;;;;;;;7.38;6.90;;;;;;;;;;5054431;28;20132;-19
2023/06/11 06:49:03;;;;;;;7.22;6.82;;;;;;;;;;5054685;28;20035;-23
2023/06/11 06:51:30;;;;;;;7.57;7.07;;;;;;;;;;5054771;28;20040;-20
2023/06/11 06:53:56;;;;;;;7.43;6.97;;;;;;;;;;5054568;28;20033;-20
2023/06/11 06:56:22;;;;;;;7.35;6.85;;;;;;;;;;5054694;28;20044;-18
2023/06/11 06:58:49;;;;;;;7.10;6.50;;;;;;;;;;5054459;28;20054;-20
2023/06/11 07:01:15;;;;;;;7.13;6.72;;;;;;;;;;5054884;28;20367;-21
2023/06/11 07:03:42;;;;;;;6.50;6.10;;;;;;;;;;5054265;28;20047;-20
2023/06/11 07:06:08;;;;;;;6.80;6.20;;;;;;;;;;5054842;28;20092;-17
2023/06/11 07:08:35;;;;;;;6.82;6.32;;;;;;;;;;5054761;28;20059;-20
2023/06/11 07:11:01;;;;;;;7.30;6.80;;;;;;;;;;5054787;28;20057;-18
2023/06/11 07:13:27;;;;;;;7.88;7.38;;;;;;;;;;5054508;28;20037;-19
2023/06/11 07:15:53;;;;;;;7.50;7.03;;;;;;;;;;5054723;28;20051;-19
2023/06/11 07:18:19;;;;;;;7.18;6.68;;;;;;;;;;5054638;28;20024;-20
2023/06/11 07:20:45;;;;;;;7.50;7.00;;;;;;;;;;5054381;28;20079;-21
2023/06/11 07:23:12;;;;;;;7.28;6.82;;;;;;;;;;5054282;28;20047;-18
2023/06/11 07:25:38;;;;;;;7.15;6.65;;;;;;;;;;5054372;28;20036;-19
2023/06/11 07:28:05;;;;;;;7.03;6.63;;;;;;;;;;5054275;28;20120;-18
2023/06/11 07:30:32;;;;;;;6.45;6.05;;;;;;;;;;5054604;28;20096;-21
2023/06/11 07:32:59;;;;;;;7.15;6.72;;;;;;;;;;5054719;28;20052;-18
2023/06/11 07:35:25;;;;;;;8.15;7.65;;;;;;;;;;5054551;28;20098;-19
2023/06/11 07:37:52;;;;;;;6.13;5.72;;;;;;;;;;5054167;28;20029;-20
2023/06/11 07:40:18;;;;;;;7.47;6.97;;;;;;;;;;5054482;28;20021;-21
2023/06/11 07:42:45;;;;;;;6.40;6.00;;;;;;;;;;5036529;28;20044;-22
2023/06/11 07:45:12;;;;;;;7.45;7.05;;;;;;;;;;5054443;28;20021;-20
2023/06/11 07:47:38;;;;;;;6.97;6.20;;;;;;;;;;5054401;28;20025;-21
2023/06/11 07:50:05;;;;;;;7.07;6.57;;;;;;;;;;5036618;28;20048;-21
2023/06/11 07:52:31;;;;;;;6.93;6.50;;;;;;;;;;5054044;28;20507;-19
2023/06/11 07:54:57;;;;;;;6.97;6.57;;;;;;;;;;5054304;28;20025;-19
2023/06/11 07:57:23;;;;;;;8.45;7.95;;;;;;;;;;5054643;28;20072;-17
2023/06/11 07:59:49;;;;;;;7.75;7.25;;;;;;;;;;5058053;28;20104;-17
2023/06/11 08:02:15;;;;;;;7.55;7.13;;;;;;;;;;5057754;28;20330;-18
2023/06/11 08:04:42;;;;;;;8.52;8.00;;;;;;;;;;5040226;28;20045;-20
2023/06/11 08:07:08;;;;;;;9.70;9.10;;;;;;;;;;5058028;28;20021;-20
2023/06/11 08:09:35;;;;;;;8.75;8.25;;;;;;;;;;5057685;28;20025;-19
2023/06/11 08:12:05;;;;;;;8.30;7.80;;;;;;;;;;5057582;28;20021;-23
2023/06/11 08:14:32;;;;;;;7.10;6.60;;;;;;;;;;5058129;28;20029;-22
2023/06/11 08:16:58;;;;;;;7.82;7.32;;;;;;;;;;5057858;28;20029;-18
2023/06/11 08:19:25;;;;;;;7.38;6.95;;;;;;;;;;5057470;28;20082;-19
2023/06/11 08:21:51;;;;;;;7.75;7.25;;;;;;;;;;5057444;28;20029;-19
2023/06/11 08:24:18;;;;;;;8.80;8.30;;;;;;;;;;5057692;28;20040;-20
2023/06/11 08:26:44;;;;;;;8.68;8.15;;;;;;;;;;5057340;28;20029;-21
2023/06/11 08:29:10;;;;;;;7.90;7.40;;;;;;;;;;5057293;28;20024;-21
2023/06/11 08:31:37;;;;;;;7.10;6.68;;;;;;;;;;5057287;28;20094;-20
2023/06/11 08:34:03;;;;;;;6.30;5.90;;;;;;;;;;5057165;28;20104;-20
2023/06/11 08:36:29;;;;;;;7.18;6.57;;;;;;;;;;5057740;28;20408;-21
2023/06/11 08:38:55;;;;;;;6.95;6.50;;;;;;;;;;5057110;28;20028;-18
2023/06/11 08:41:23;;;;;;;9.00;8.50;;;;;;;;;;5057122;28;20024;-17
2023/06/11 08:43:49;;;;;;;10.07;9.48;;;;;;;;;;5057035;28;20017;-18
2023/06/11 08:46:16;;;;;;;8.18;7.68;;;;;;;;;;5057068;28;20037;-18
2023/06/11 08:48:43;;;;;;;7.43;6.93;;;;;;;;;;5039378;28;20062;-20
2023/06/11 08:51:13;;;;;;;7.30;6.90;;;;;;;;;;5057225;28;20029;-17
2023/06/11 08:53:39;;;;;;;7.00;6.60;;;;;;;;;;5056908;28;20031;-21
2023/06/11 08:56:08;;;;;;;8.00;7.50;;;;;;;;;;5057095;28;20024;-18
2023/06/11 08:58:35;;;;;;;6.68;6.28;;;;;;;;;;5057255;28;20025;-19
2023/06/11 09:01:09;;;;;;;7.90;7.30;;;;;;;;;;5056746;28;20076;-19
2023/06/11 09:03:35;;;;;;;10.40;9.80;;;;;;;;;;5056589;28;20052;-20
2023/06/11 09:06:01;;;;;;;9.88;9.27;;;;;;;;;;5056872;28;20104;-17
2023/06/11 09:08:27;;;;;;;10.52;9.93;;;;;;;;;;5056880;28;20110;-19
2023/06/11 09:10:54;;;;;;;10.00;9.40;;;;;;;;;;5055870;28;20025;-22
2023/06/11 09:13:24;;;;;;;8.88;8.27;;;;;;;;;;5056404;28;20051;-20
2023/06/11 09:15:57;;;;;;;7.05;6.65;;;;;;;;;;5056517;28;20463;-21
2023/06/11 09:18:24;;;;;;;6.60;6.20;;;;;;;;;;5056315;28;20117;-19
2023/06/11 09:20:54;;;;;;;7.80;7.30;;;;;;;;;;5056348;28;20033;-20
2023/06/11 09:23:25;;;;;;;7.72;7.22;;;;;;;;;;5056401;28;20028;-19
2023/06/11 09:25:51;;;;;;;8.05;7.40;;;;;;;;;;5056185;28;20449;-17
2023/06/11 09:28:17;;;;;;;10.50;9.90;;;;;;;;;;5056224;28;20029;-20
2023/06/11 09:30:53;;;;;;;8.43;7.93;;;;;;;;;;5056183;28;20032;-22
2023/06/11 09:33:19;;;;;;;10.27;9.63;;;;;;;;;;5056366;28;20047;-22
2023/06/11 09:35:45;;;;;;;8.63;8.13;;;;;;;;;;5056355;28;20039;-22
2023/06/11 09:38:18;;;;;;;8.98;8.48;;;;;;;;;;5056005;28;20028;-23
2023/06/11 09:40:48;;;;;;;7.85;7.35;;;;;;;;;;5056195;28;20025;-20
2023/06/11 09:43:15;;;;;;;7.25;6.85;;;;;;;;;;5055854;28;20483;-18
2023/06/11 09:45:44;;;;;;;6.47;6.07;;;;;;;;;;5055782;28;20032;-20
2023/06/11 09:48:13;;;;;;;7.90;7.40;;;;;;;;;;5055780;28;20017;-21
2023/06/11 09:50:39;;;;;;;10.40;9.75;;;;;;;;;;5038141;28;20360;-21
2023/06/11 09:53:06;;;;;;;8.00;7.50;;;;;;;;;;5055915;28;20344;-20
2023/06/11 09:55:36;;;;;;;10.80;10.20;;;;;;;;;;5055690;28;20025;-20
2023/06/11 09:58:03;;;;;;;12.15;11.25;;;;;;;;;;5055503;28;20055;-21
2023/06/11 10:00:29;;;;;;;9.18;8.57;;;;;;;;;;5055598;28;20025;-18
2023/06/11 10:02:57;;;;;;;7.18;6.78;;;;;;;;;;5055275;28;20116;-18
2023/06/11 10:05:23;;;;;;;7.20;6.78;;;;;;;;;;5055816;28;20113;-21
2023/06/11 10:07:58;;;;;;;6.93;6.43;;;;;;;;;;5055712;28;20021;-18
2023/06/11 10:10:25;;;;;;;7.70;7.20;;;;;;;;;;5055651;28;20047;-19
2023/06/11 10:12:52;;;;;;;7.13;6.72;;;;;;;;;;5055877;28;20028;-21
2023/06/11 10:15:19;;;;;;;6.53;6.13;;;;;;;;;;5055328;28;20082;-20
2023/06/11 10:17:47;;;;;;;7.97;7.47;;;;;;;;;;5055196;28;20028;-19
2023/06/11 10:20:17;;;;;;;8.23;7.72;;;;;;;;;;5055491;28;20045;-20
2023/06/11 10:22:43;;;;;;;11.93;10.70;;;;;;;;;;5054213;28;20021;-20
2023/06/11 10:25:09;;;;;;;11.05;10.35;;;;;;;;;;5055130;28;20356;-20
2023/06/11 10:27:36;;;;;;;10.95;10.25;;;;;;;;;;5055092;28;20024;-18
2023/06/11 10:30:02;;;;;;;7.55;7.05;;;;;;;;;;5055604;28;20025;-20
2023/06/11 10:32:29;;;;;;;7.90;7.40;;;;;;;;;;5037404;28;20047;-22
2023/06/11 10:35:07;;;;;;;6.78;6.38;;;;;;;;;;5055272;28;20024;-20
2023/06/11 10:37:37;;;;;;;8.77;8.02;;;;;;;;;;5054958;28;20540;-22
2023/06/11 10:40:05;;;;;;;8.52;8.02;;;;;;;;;;5037313;28;20032;-21
2023/06/11 10:42:39;;;;;;;9.82;9.23;;;;;;;;;;5054698;28;20103;-21
2023/06/11 10:45:14;;;;;;;11.40;10.70;;;;;;;;;;5054846;28;20487;-19
2023/06/11 10:47:48;;;;;;;10.30;9.60;;;;;;;;;;5054925;28;20021;-21
2023/06/11 10:50:15;;;;;;;10.48;9.88;;;;;;;;;;5054698;28;20029;-20
2023/06/11 10:52:51;;;;;;;8.43;7.93;;;;;;;;;;5054593;28;20086;-19
2023/06/11 10:55:21;;;;;;;8.85;8.00;;;;;;;;;;5054677;28;20021;-21
2023/06/11 10:57:56;;;;;;;7.82;7.32;;;;;;;;;;5054528;28;20025;-19
2023/06/11 11:00:23;;;;;;;11.73;10.98;;;;;;;;;;5054952;28;20029;-20
2023/06/11 11:02:50;;;;;;;12.50;11.70;;;;;;;;;;5020388;28;20438;-21
2023/06/11 11:05:17;;;;;;;12.13;11.43;;;;;;;;;;5054566;28;20020;-21
2023/06/11 11:07:45;;;;;;;9.95;9.35;;;;;;;;;;5055052;28;20351;-20
2023/06/11 11:10:12;;;;;;;12.05;11.35;;;;;;;;;;5054733;28;20379;-16
2023/06/11 11:12:40;;;;;;;10.90;10.20;;;;;;;;;;5054535;28;20025;-21
2023/06/11 11:15:07;;;;;;;8.15;7.65;;;;;;;;;;5054490;28;20025;-23
2023/06/11 11:17:34;;;;;;;9.10;8.60;;;;;;;;;;5054379;28;20107;-21
2023/06/11 11:20:00;;;;;;;10.77;10.18;;;;;;;;;;5054831;28;20021;-18
2023/06/11 11:22:29;;;;;;;10.23;9.63;;;;;;;;;;5036966;28;20025;-18
2023/06/11 11:25:03;;;;;;;12.50;11.70;;;;;;;;;;5054642;28;20026;-20
2023/06/11 11:27:29;;;;;;;11.27;10.57;;;;;;;;;;5054584;28;20103;-20
2023/06/11 11:29:59;;;;;;;10.45;9.85;;;;;;;;;;5036836;28;20523;-18
2023/06/11 11:32:32;;;;;;;11.48;10.82;;;;;;;;;;5054280;28;20111;-24
2023/06/11 11:35:00;;;;;;;11.27;10.57;;;;;;;;;;5058648;28;20396;-19
2023/06/11 11:37:28;;;;;;;10.90;10.23;;;;;;;;;;5058284;28;20041;-21
2023/06/11 11:39:55;;;;;;;8.25;7.75;;;;;;;;;;5058183;28;20028;-19
2023/06/11 11:42:23;;;;;;;8.90;8.32;;;;;;;;;;5058150;28;20044;-18
2023/06/11 11:44:53;;;;;;;8.93;8.18;;;;;;;;;;5058397;28;20036;-18
2023/06/11 11:47:20;;;;;;;9.30;8.70;;;;;;;;;;5058618;28;20104;-23
2023/06/11 11:49:56;;;;;;;11.40;10.70;;;;;;;;;;5058336;28;20024;-20
2023/06/11 11:52:23;;;;;;;8.40;7.90;;;;;;;;;;5057907;28;20025;-22
2023/06/11 11:54:49;;;;;;;12.48;11.68;;;;;;;;;;5058239;28;20024;-22
2023/06/11 11:57:19;;;;;;;11.43;10.73;;;;;;;;;;5057904;28;20036;-20
2023/06/11 11:59:45;;;;;;;10.75;10.05;;;;;;;;;;5057802;28;20117;-21
2023/06/11 12:02:11;;;;;;;13.68;12.68;;;;;;;;;;5058034;28;20056;-18
2023/06/11 12:04:42;;;;;;;11.30;10.60;;;;;;;;;;5057621;28;20124;-20
2023/06/11 12:07:12;;;;;;;9.80;9.20;;;;;;;;;;5057798;28;20345;-22
2023/06/11 12:09:39;;;;;;;12.25;11.52;;;;;;;;;;5057748;28;20029;-20
2023/06/11 12:12:07;;;;;;;11.02;10.32;;;;;;;;;;5057595;28;20502;-22
2023/06/11 12:14:33;;;;;;;12.20;11.40;;;;;;;;;;5057564;28;20044;-22
2023/06/11 12:17:00;;;;;;;12.15;11.45;;;;;;;;;;5057490;28;20025;-19
2023/06/11 12:19:28;;;;;;;9.70;9.10;;;;;;;;;;5057457;28;20185;-19
2023/06/11 12:21:58;;;;;;;12.27;11.57;;;;;;;;;;5057620;28;20025;-22
2023/06/11 12:24:24;;;;;;;10.73;10.02;;;;;;;;;;5057429;28;20364;-19
2023/06/11 12:26:51;;;;;;;11.25;10.55;;;;;;;;;;5057349;28;20024;-19
2023/06/11 12:29:19;;;;;;;12.20;11.50;;;;;;;;;;5057358;28;20045;-19
2023/06/11 12:31:48;;;;;;;12.13;11.40;;;;;;;;;;5057506;28;20076;-19
2023/06/11 12:34:15;;;;;;;10.02;9.43;;;;;;;;;;5057153;28;20032;-21
2023/06/11 12:36:46;;;;;;;10.50;9.90;;;;;;;;;;5057719;28;20021;-27
2023/06/11 12:39:13;;;;;;;8.18;7.68;;;;;;;;;;5057018;28;20032;-22
2023/06/11 12:41:40;;;;;;;9.18;8.60;;;;;;;;;;5057637;28;20024;-19
2023/06/11 12:44:06;;;;;;;10.13;9.52;;;;;;;;;;5056545;28;20028;-21
2023/06/11 12:46:36;;;;;;;11.77;10.77;;;;;;;;;;5057188;28;20063;-18
2023/06/11 12:49:02;;;;;;;7.05;6.65;;;;;;;;;;5039407;28;20452;-21
2023/06/11 12:51:28;;;;;;;11.02;10.43;;;;;;;;;;5056884;28;20025;-21
2023/06/11 12:53:54;;;;;;;10.55;9.95;;;;;;;;;;5056772;28;20021;-21
2023/06/11 12:56:23;;;;;;;9.45;8.85;;;;;;;;;;5056823;28;20479;-21
2023/06/11 12:58:50;;;;;;;11.98;11.15;;;;;;;;;;5056728;28;20072;-20
2023/06/11 13:01:16;;;;;;;11.25;10.55;;;;;;;;;;5056751;28;20039;-22
2023/06/11 13:03:42;;;;;;;11.13;10.48;;;;;;;;;;5056440;28;20110;-22
2023/06/11 13:06:08;;;;;;;8.02;7.53;;;;;;;;;;5056606;28;20021;-20
2023/06/11 13:08:35;;;;;;;11.82;11.13;;;;;;;;;;5056888;28;20444;-18
2023/06/11 13:11:01;;;;;;;10.88;10.20;;;;;;;;;;5057339;28;20351;-20
2023/06/11 13:13:29;;;;;;;9.82;9.25;;;;;;;;;;5056635;28;20036;-24
2023/06/11 13:15:55;;;;;;;10.50;9.90;;;;;;;;;;5056421;28;20045;-19
2023/06/11 13:18:21;;;;;;;10.68;10.07;;;;;;;;;;5056318;28;20448;-19
2023/06/11 13:20:47;;;;;;;10.15;9.55;;;;;;;;;;5056351;28;20025;-21
2023/06/11 13:23:19;;;;;;;12.75;11.88;;;;;;;;;;5038761;28;20036;-21
2023/06/11 13:25:45;;;;;;;11.38;10.60;;;;;;;;;;5056849;28;20025;-22
2023/06/11 13:28:11;;;;;;;12.48;11.68;;;;;;;;;;5056234;28;20025;-21
2023/06/11 13:30:38;;;;;;;12.93;12.18;;;;;;;;;;5056223;28;20075;-19
2023/06/11 13:33:04;;;;;;;12.30;11.50;;;;;;;;;;5038742;28;20464;-21
2023/06/11 13:35:30;;;;;;;10.70;10.10;;;;;;;;;;5056128;28;20037;-19
2023/06/11 13:37:57;;;;;;;10.10;9.40;;;;;;;;;;5055977;28;20372;-19
2023/06/11 13:40:23;;;;;;;11.15;10.45;;;;;;;;;;5056253;28;20075;-21
2023/06/11 13:42:49;;;;;;;11.63;10.73;;;;;;;;;;5056152;28;20028;-20
2023/06/11 13:45:15;;;;;;;11.13;10.43;;;;;;;;;;5055946;28;20036;-21
2023/06/11 13:47:42;;;;;;;11.93;11.23;;;;;;;;;;5038319;28;20466;-23
2023/06/11 13:50:08;;;;;;;11.82;11.02;;;;;;;;;;5055801;28;20096;-21
2023/06/11 13:52:34;;;;;;;11.35;10.68;;;;;;;;;;5055689;28;20119;-19
2023/06/11 13:55:00;;;;;;;12.32;11.63;;;;;;;;;;5055943;28;20025;-18
2023/06/11 13:57:27;;;;;;;12.52;11.73;;;;;;;;;;5055776;28;20355;-19
2023/06/11 13:59:54;;;;;;;10.15;9.55;;;;;;;;;;5055504;28;20016;-17
2023/06/11 14:02:20;;;;;;;11.15;10.45;;;;;;;;;;5055914;28;20017;-20
2023/06/11 14:04:50;;;;;;;11.15;10.45;;;;;;;;;;5055289;28;20053;-18
2023/06/11 14:07:16;;;;;;;11.15;10.45;;;;;;;;;;5055505;28;20431;-19
2023/06/11 14:09:43;;;;;;;11.20;10.43;;;;;;;;;;5037887;28;20043;-18
2023/06/11 14:12:09;;;;;;;10.57;9.98;;;;;;;;;;5037730;28;20382;-19
2023/06/11 14:14:35;;;;;;;10.40;9.80;;;;;;;;;;5055384;28;20355;-19
2023/06/11 14:17:04;;;;;;;12.18;11.48;;;;;;;;;;5055228;28;20025;-19
2023/06/11 14:19:31;;;;;;;11.43;10.63;;;;;;;;;;5055171;28;20493;-20
2023/06/11 14:21:57;;;;;;;11.07;10.38;;;;;;;;;;5055154;28;20029;-21
2023/06/11 14:24:23;;;;;;;10.15;9.55;;;;;;;;;;5055705;28;20017;-19
2023/06/11 14:26:51;;;;;;;12.77;11.98;;;;;;;;;;5055149;28;20028;-18
2023/06/11 14:29:17;;;;;;;11.05;10.38;;;;;;;;;;5055115;28;20032;-18
2023/06/11 14:31:43;;;;;;;10.60;10.00;;;;;;;;;;5055073;28;20452;-21
2023/06/11 14:34:10;;;;;;;10.98;10.27;;;;;;;;;;5054939;28;20483;-19
2023/06/11 14:36:36;;;;;;;12.65;11.85;;;;;;;;;;5055242;28;20517;-21